createdAt,value
2018-07-30T00:09:00.075Z,20.00
2018-07-30T00:09:33.948Z,19.80
2018-07-30T00:10:08.314Z,19.80
2018-07-30T00:10:42.218Z,19.80
2018-07-30T00:11:16.757Z,19.80
2018-07-30T00:11:50.947Z,19.80
2018-07-30T00:12:25.227Z,19.80
2018-07-30T00:12:59.469Z,19.80
2018-07-30T00:13:33.691Z,19.80
2018-07-30T00:14:08.018Z,19.80
2018-07-30T00:14:42.120Z,19.80
2018-07-30T00:15:15.995Z,19.80
2018-07-30T00:15:50.608Z,19.80
2018-07-30T00:16:24.449Z,19.80
2018-07-30T00:16:58.969Z,19.80
2018-07-30T00:17:32.968Z,19.80
2018-07-30T00:18:07.036Z,19.80
2018-07-30T00:18:41.229Z,19.80
2018-07-30T00:19:15.465Z,19.70
2018-07-30T00:19:49.655Z,19.70
2018-07-30T00:20:23.837Z,19.70
2018-07-30T00:20:58.458Z,19.70
2018-07-30T00:21:33.070Z,19.70
2018-07-30T00:22:07.093Z,19.70
2018-07-30T00:22:40.984Z,19.70
2018-07-30T00:23:14.868Z,19.70
2018-07-30T00:23:49.021Z,19.70
2018-07-30T00:24:23.015Z,19.70
2018-07-30T00:24:57.333Z,19.70
2018-07-30T00:25:31.499Z,19.70
2018-07-30T00:26:05.701Z,19.70
2018-07-30T00:26:39.607Z,19.70
2018-07-30T00:27:13.867Z,19.70
2018-07-30T00:27:47.737Z,19.70
2018-07-30T00:28:21.587Z,19.70
2018-07-30T00:28:55.697Z,19.70
2018-07-30T00:29:29.581Z,19.70
2018-07-30T00:30:04.477Z,19.70
2018-07-30T00:30:39.434Z,19.70
2018-07-30T00:31:13.447Z,19.70
2018-07-30T00:31:48.621Z,19.70
2018-07-30T00:32:22.875Z,19.70
2018-07-30T00:32:57.053Z,19.70
2018-07-30T00:33:31.783Z,19.70
2018-07-30T00:34:05.631Z,19.70
2018-07-30T00:34:39.489Z,19.70
2018-07-30T00:35:13.359Z,19.70
2018-07-30T00:35:47.573Z,19.70
2018-07-30T00:36:21.469Z,19.70
2018-07-30T00:36:55.309Z,19.70
2018-07-30T00:37:30.185Z,19.70
2018-07-30T00:38:04.017Z,19.70
2018-07-30T00:38:37.889Z,19.70
2018-07-30T00:39:12.633Z,19.70
2018-07-30T00:39:46.749Z,19.70
2018-07-30T00:40:20.609Z,19.70
2018-07-30T00:40:54.516Z,19.70
2018-07-30T00:41:28.431Z,19.70
2018-07-30T00:42:02.348Z,19.70
2018-07-30T00:42:36.573Z,19.70
2018-07-30T00:43:10.459Z,19.70
2018-07-30T00:43:44.318Z,19.70
2018-07-30T00:44:18.165Z,19.70
2018-07-30T00:44:52.876Z,19.70
2018-07-30T00:45:27.454Z,19.70
2018-07-30T00:46:01.348Z,19.70
2018-07-30T00:46:35.428Z,19.70
2018-07-30T00:47:09.612Z,19.70
2018-07-30T00:47:43.608Z,19.70
2018-07-30T00:48:17.907Z,19.70
2018-07-30T00:48:51.897Z,19.70
2018-07-30T00:49:26.089Z,19.70
2018-07-30T00:50:00.295Z,19.70
2018-07-30T00:50:34.295Z,19.70
2018-07-30T00:51:08.187Z,19.70
2018-07-30T00:51:42.077Z,19.70
2018-07-30T00:52:16.037Z,19.70
2018-07-30T00:52:51.537Z,19.70
2018-07-30T00:53:25.389Z,19.70
2018-07-30T00:53:59.417Z,19.70
2018-07-30T00:54:33.296Z,19.70
2018-07-30T00:55:07.843Z,19.70
2018-07-30T00:55:41.700Z,19.70
2018-07-30T00:56:15.553Z,19.70
2018-07-30T00:56:49.471Z,19.70
2018-07-30T00:57:23.868Z,19.70
2018-07-30T00:57:57.737Z,19.70
2018-07-30T00:58:31.647Z,19.70
2018-07-30T00:59:05.669Z,19.70
2018-07-30T00:59:39.868Z,19.70
2018-07-30T01:00:13.754Z,19.70
2018-07-30T01:00:47.607Z,19.70
2018-07-30T01:01:21.501Z,19.70
2018-07-30T01:01:56.290Z,19.70
2018-07-30T01:02:30.180Z,19.70
2018-07-30T01:03:04.385Z,19.70
2018-07-30T01:03:38.579Z,19.70
2018-07-30T01:04:12.463Z,19.70
2018-07-30T01:04:46.332Z,19.70
2018-07-30T01:05:20.196Z,19.70
2018-07-30T01:05:54.054Z,19.70
2018-07-30T01:06:28.615Z,19.70
2018-07-30T01:07:02.439Z,19.70
2018-07-30T01:07:36.329Z,19.70
2018-07-30T01:08:10.432Z,19.70
2018-07-30T01:08:44.283Z,19.70
2018-07-30T01:09:18.230Z,19.70
2018-07-30T01:09:52.135Z,19.70
2018-07-30T01:10:26.511Z,19.70
2018-07-30T01:11:00.390Z,19.70
2018-07-30T01:11:34.929Z,19.70
2018-07-30T01:12:42.705Z,19.70
2018-07-30T01:13:16.935Z,19.70
2018-07-30T01:13:51.137Z,19.60
2018-07-30T01:14:26.526Z,19.70
2018-07-30T01:15:00.911Z,19.60
2018-07-30T01:15:34.845Z,19.60
2018-07-30T01:16:09.051Z,19.60
2018-07-30T01:16:43.623Z,19.60
2018-07-30T01:17:17.463Z,19.60
2018-07-30T01:17:51.661Z,19.60
2018-07-30T01:18:25.519Z,19.60
2018-07-30T01:18:59.413Z,19.60
2018-07-30T01:19:33.923Z,19.60
2018-07-30T01:20:07.765Z,19.60
2018-07-30T01:20:41.637Z,19.60
2018-07-30T01:21:15.817Z,19.60
2018-07-30T01:21:49.704Z,19.60
2018-07-30T01:22:23.889Z,19.60
2018-07-30T01:22:57.735Z,19.50
2018-07-30T01:23:31.951Z,19.60
2018-07-30T01:24:06.161Z,19.50
2018-07-30T01:24:39.982Z,19.50
2018-07-30T01:25:14.165Z,19.50
2018-07-30T01:25:48.370Z,19.50
2018-07-30T01:26:27.605Z,19.50
2018-07-30T01:27:01.469Z,19.50
2018-07-30T01:27:35.292Z,19.50
2018-07-30T01:28:09.127Z,19.50
2018-07-30T01:28:43.049Z,19.50
2018-07-30T01:29:17.225Z,19.50
2018-07-30T01:29:51.080Z,19.50
2018-07-30T01:30:25.026Z,19.50
2018-07-30T01:30:58.894Z,19.50
2018-07-30T01:31:33.064Z,19.50
2018-07-30T01:32:07.470Z,19.50
2018-07-30T01:32:41.654Z,19.50
2018-07-30T01:33:15.519Z,19.50
2018-07-30T01:33:49.430Z,19.50
2018-07-30T01:34:23.280Z,19.50
2018-07-30T01:34:57.280Z,19.50
2018-07-30T01:35:31.135Z,19.50
2018-07-30T01:36:05.334Z,19.40
2018-07-30T01:36:42.467Z,19.40
2018-07-30T01:37:16.338Z,19.40
2018-07-30T01:37:50.548Z,19.40
2018-07-30T01:38:24.459Z,19.40
2018-07-30T01:38:58.346Z,19.40
2018-07-30T01:39:32.200Z,19.40
2018-07-30T01:40:06.311Z,19.40
2018-07-30T01:40:40.122Z,19.40
2018-07-30T01:41:13.979Z,19.40
2018-07-30T01:41:47.794Z,19.40
2018-07-30T01:42:21.641Z,19.40
2018-07-30T01:42:55.840Z,19.40
2018-07-30T01:43:29.975Z,19.40
2018-07-30T01:44:03.960Z,19.40
2018-07-30T01:44:38.168Z,19.40
2018-07-30T01:45:12.372Z,19.40
2018-07-30T01:45:46.560Z,19.40
2018-07-30T01:46:20.453Z,19.40
2018-07-30T01:46:54.670Z,19.40
2018-07-30T01:47:28.856Z,19.40
2018-07-30T01:48:02.734Z,19.40
2018-07-30T01:48:36.629Z,19.40
2018-07-30T01:49:10.457Z,19.40
2018-07-30T01:49:44.352Z,19.40
2018-07-30T01:50:18.225Z,19.40
2018-07-30T01:50:52.127Z,19.40
2018-07-30T01:51:26.036Z,19.40
2018-07-30T01:52:00.256Z,19.40
2018-07-30T01:52:34.505Z,19.40
2018-07-30T01:53:08.371Z,19.40
2018-07-30T01:54:16.036Z,19.40
2018-07-30T01:54:50.245Z,19.40
2018-07-30T01:55:24.430Z,19.40
2018-07-30T01:55:58.708Z,19.40
2018-07-30T01:56:32.585Z,19.40
2018-07-30T01:57:06.554Z,19.40
2018-07-30T01:57:41.106Z,19.40
2018-07-30T01:58:15.327Z,19.40
2018-07-30T01:58:49.232Z,19.40
2018-07-30T01:59:23.278Z,19.40
2018-07-30T01:59:57.111Z,19.40
2018-07-30T02:00:31.288Z,19.40
2018-07-30T02:01:05.675Z,19.40
2018-07-30T02:02:13.741Z,19.40
2018-07-30T02:02:47.575Z,19.40
2018-07-30T02:03:21.472Z,19.40
2018-07-30T02:03:55.347Z,19.40
2018-07-30T02:04:29.259Z,19.40
2018-07-30T02:05:03.104Z,19.40
2018-07-30T02:05:37.270Z,19.40
2018-07-30T02:06:11.476Z,19.40
2018-07-30T02:06:45.692Z,19.40
2018-07-30T02:07:19.861Z,19.40
2018-07-30T02:08:27.669Z,19.40
2018-07-30T02:09:02.072Z,19.40
2018-07-30T02:09:36.324Z,19.40
2018-07-30T02:10:11.526Z,19.40
2018-07-30T02:10:45.414Z,19.40
2018-07-30T02:11:19.590Z,19.40
2018-07-30T02:11:53.814Z,19.40
2018-07-30T02:12:27.671Z,19.40
2018-07-30T02:13:01.521Z,19.40
2018-07-30T02:13:35.439Z,19.40
2018-07-30T02:14:09.645Z,19.40
2018-07-30T02:14:43.546Z,19.40
2018-07-30T02:15:17.390Z,19.40
2018-07-30T02:15:51.235Z,19.40
2018-07-30T02:16:25.108Z,19.40
2018-07-30T02:16:58.954Z,19.40
2018-07-30T02:17:33.175Z,19.40
2018-07-30T02:18:07.085Z,19.40
2018-07-30T02:18:40.978Z,19.40
2018-07-30T02:19:14.844Z,19.40
2018-07-30T02:19:48.712Z,19.40
2018-07-30T02:20:22.608Z,19.40
2018-07-30T02:20:56.488Z,19.50
2018-07-30T02:21:30.717Z,19.50
2018-07-30T02:22:04.807Z,19.50
2018-07-30T02:22:38.993Z,19.50
2018-07-30T02:23:13.172Z,19.50
2018-07-30T02:23:47.448Z,19.50
2018-07-30T02:24:21.668Z,19.50
2018-07-30T02:24:55.592Z,19.50
2018-07-30T02:25:29.459Z,19.50
2018-07-30T02:26:03.318Z,19.50
2018-07-30T02:26:37.850Z,19.50
2018-07-30T02:27:11.718Z,19.50
2018-07-30T02:27:45.581Z,19.50
2018-07-30T02:28:19.437Z,19.50
2018-07-30T02:28:53.353Z,19.50
2018-07-30T02:29:27.528Z,19.50
2018-07-30T02:30:08.956Z,19.60
2018-07-30T02:30:42.834Z,19.60
2018-07-30T02:31:16.706Z,19.60
2018-07-30T02:31:50.908Z,19.60
2018-07-30T02:32:25.058Z,19.60
2018-07-30T02:32:59.294Z,19.60
2018-07-30T02:33:33.488Z,19.60
2018-07-30T02:34:08.744Z,19.60
2018-07-30T02:34:43.232Z,19.60
2018-07-30T02:35:17.778Z,19.60
2018-07-30T02:35:51.680Z,19.60
2018-07-30T02:36:25.571Z,19.60
2018-07-30T02:36:59.477Z,19.60
2018-07-30T02:37:33.330Z,19.60
2018-07-30T02:38:07.164Z,19.70
2018-07-30T02:38:41.030Z,19.60
2018-07-30T02:39:14.939Z,19.70
2018-07-30T02:39:48.797Z,19.70
2018-07-30T02:40:23.055Z,19.70
2018-07-30T02:40:56.922Z,19.70
2018-07-30T02:41:30.786Z,19.70
2018-07-30T02:42:05.044Z,19.70
2018-07-30T02:42:39.516Z,19.70
2018-07-30T02:43:13.406Z,19.70
2018-07-30T02:43:47.578Z,19.70
2018-07-30T02:44:21.472Z,19.70
2018-07-30T02:44:55.705Z,19.70
2018-07-30T02:45:29.546Z,19.70
2018-07-30T02:46:03.399Z,19.70
2018-07-30T02:46:37.872Z,19.70
2018-07-30T02:47:11.777Z,19.70
2018-07-30T02:47:46.023Z,19.70
2018-07-30T02:48:20.322Z,19.70
2018-07-30T02:48:54.599Z,19.70
2018-07-30T02:49:28.491Z,19.70
2018-07-30T02:50:02.898Z,19.70
2018-07-30T02:50:37.425Z,19.70
2018-07-30T02:51:11.282Z,19.70
2018-07-30T02:51:45.177Z,19.70
2018-07-30T02:52:19.056Z,19.70
2018-07-30T02:52:52.965Z,19.70
2018-07-30T02:53:26.816Z,19.70
2018-07-30T02:54:00.765Z,19.70
2018-07-30T02:54:34.999Z,19.70
2018-07-30T02:55:08.821Z,19.70
2018-07-30T02:55:43.243Z,19.70
2018-07-30T02:56:17.090Z,19.70
2018-07-30T02:56:50.945Z,19.80
2018-07-30T02:57:24.802Z,19.80
2018-07-30T02:57:58.688Z,19.80
2018-07-30T02:58:32.874Z,19.80
2018-07-30T02:59:07.143Z,19.80
2018-07-30T02:59:41.380Z,19.80
2018-07-30T03:00:15.249Z,19.80
2018-07-30T03:00:49.412Z,19.80
2018-07-30T03:01:23.700Z,19.80
2018-07-30T03:01:57.909Z,19.80
2018-07-30T03:02:31.732Z,19.80
2018-07-30T03:03:05.600Z,19.80
2018-07-30T03:03:45.906Z,19.80
2018-07-30T03:04:26.398Z,19.80
2018-07-30T03:05:00.251Z,19.80
2018-07-30T03:05:34.155Z,19.80
2018-07-30T03:06:08.009Z,19.80
2018-07-30T03:06:42.576Z,19.80
2018-07-30T03:07:16.763Z,19.80
2018-07-30T03:07:50.622Z,19.80
2018-07-30T03:08:24.830Z,19.80
2018-07-30T03:08:59.028Z,19.80
2018-07-30T03:09:33.237Z,19.80
2018-07-30T03:10:07.516Z,19.90
2018-07-30T03:10:41.366Z,19.90
2018-07-30T03:11:15.248Z,19.90
2018-07-30T03:11:49.139Z,19.90
2018-07-30T03:12:22.972Z,19.90
2018-07-30T03:12:56.820Z,19.90
2018-07-30T03:13:30.697Z,19.90
2018-07-30T03:14:04.537Z,19.90
2018-07-30T03:14:38.456Z,19.90
2018-07-30T03:15:12.789Z,19.90
2018-07-30T03:15:46.628Z,19.90
2018-07-30T03:16:20.823Z,20.00
2018-07-30T03:16:55.007Z,20.00
2018-07-30T03:17:29.190Z,20.00
2018-07-30T03:18:03.043Z,20.00
2018-07-30T03:18:37.266Z,20.00
2018-07-30T03:19:11.117Z,20.00
2018-07-30T03:19:45.316Z,20.00
2018-07-30T03:20:19.169Z,20.10
2018-07-30T03:20:53.413Z,20.10
2018-07-30T03:21:27.620Z,20.10
2018-07-30T03:22:01.471Z,20.10
2018-07-30T03:22:35.745Z,20.10
2018-07-30T03:23:09.943Z,20.10
2018-07-30T03:23:44.154Z,20.10
2018-07-30T03:24:18.014Z,20.20
2018-07-30T03:24:52.300Z,20.20
2018-07-30T03:25:26.813Z,20.20
2018-07-30T03:26:00.672Z,20.20
2018-07-30T03:26:34.504Z,20.20
2018-07-30T03:27:08.345Z,20.20
2018-07-30T03:27:42.533Z,20.20
2018-07-30T03:28:16.355Z,20.30
2018-07-30T03:28:50.243Z,20.30
2018-07-30T03:29:24.317Z,20.30
2018-07-30T03:29:58.171Z,20.30
2018-07-30T03:30:32.023Z,20.30
2018-07-30T03:31:05.866Z,20.30
2018-07-30T03:31:40.080Z,20.40
2018-07-30T03:32:14.932Z,20.40
2018-07-30T03:32:49.136Z,20.40
2018-07-30T03:33:23.520Z,20.40
2018-07-30T03:33:57.351Z,20.40
2018-07-30T03:34:31.890Z,20.40
2018-07-30T03:35:06.769Z,20.50
2018-07-30T03:35:40.952Z,20.50
2018-07-30T03:36:15.163Z,20.50
2018-07-30T03:36:48.997Z,20.50
2018-07-30T03:37:23.179Z,20.60
2018-07-30T03:37:57.375Z,20.60
2018-07-30T03:38:31.215Z,20.60
2018-07-30T03:39:07.314Z,20.60
2018-07-30T03:39:41.204Z,20.60
2018-07-30T03:40:15.417Z,20.60
2018-07-30T03:40:49.623Z,20.60
2018-07-30T03:41:23.495Z,20.70
2018-07-30T03:41:57.348Z,20.70
2018-07-30T03:42:31.560Z,20.70
2018-07-30T03:43:05.409Z,20.70
2018-07-30T03:43:39.604Z,20.80
2018-07-30T03:44:13.461Z,20.80
2018-07-30T03:44:48.015Z,20.80
2018-07-30T03:45:21.951Z,20.80
2018-07-30T03:45:56.295Z,20.80
2018-07-30T03:46:30.136Z,20.80
2018-07-30T03:47:03.984Z,20.90
2018-07-30T03:47:38.163Z,20.90
2018-07-30T03:48:12.383Z,20.90
2018-07-30T03:48:46.533Z,20.90
2018-07-30T03:49:20.359Z,20.90
2018-07-30T03:49:54.689Z,20.90
2018-07-30T03:50:28.867Z,20.90
2018-07-30T03:51:02.717Z,21.00
2018-07-30T03:51:36.895Z,21.00
2018-07-30T03:52:11.085Z,21.00
2018-07-30T03:52:46.528Z,21.00
2018-07-30T03:53:20.723Z,21.00
2018-07-30T03:53:55.347Z,21.10
2018-07-30T03:54:29.523Z,21.10
2018-07-30T03:55:03.373Z,21.10
2018-07-30T03:55:37.911Z,21.10
2018-07-30T03:56:12.447Z,21.20
2018-07-30T03:56:46.311Z,21.20
2018-07-30T03:57:20.856Z,21.20
2018-07-30T03:57:54.763Z,21.20
2018-07-30T03:58:29.145Z,21.20
2018-07-30T03:59:03.324Z,21.20
2018-07-30T03:59:37.185Z,21.20
2018-07-30T04:00:12.532Z,21.30
2018-07-30T04:00:46.476Z,21.30
2018-07-30T04:01:20.305Z,21.40
2018-07-30T04:01:54.625Z,21.50
2018-07-30T04:02:28.863Z,21.50
2018-07-30T04:03:02.719Z,21.60
2018-07-30T04:03:36.937Z,21.70
2018-07-30T04:04:10.773Z,21.70
2018-07-30T04:04:44.661Z,21.80
2018-07-30T04:05:18.897Z,21.90
2018-07-30T04:05:53.221Z,22.00
2018-07-30T04:06:27.282Z,22.10
2018-07-30T04:07:01.635Z,22.30
2018-07-30T04:07:36.075Z,22.40
2018-07-30T04:08:10.275Z,22.50
2018-07-30T04:08:44.139Z,22.70
2018-07-30T04:09:17.999Z,22.80
2018-07-30T04:09:52.716Z,23.00
2018-07-30T04:10:26.727Z,23.10
2018-07-30T04:11:00.981Z,23.20
2018-07-30T04:11:35.185Z,23.30
2018-07-30T04:12:09.365Z,23.40
2018-07-30T04:12:43.587Z,23.40
2018-07-30T04:13:58.099Z,23.40
2018-07-30T04:14:31.960Z,23.30
2018-07-30T04:15:06.950Z,23.30
2018-07-30T04:15:40.785Z,23.30
2018-07-30T04:16:14.973Z,23.20
2018-07-30T04:16:51.087Z,23.10
2018-07-30T04:17:24.967Z,23.10
2018-07-30T04:17:58.831Z,23.00
2018-07-30T04:18:32.726Z,22.90
2018-07-30T04:19:06.931Z,22.90
2018-07-30T04:19:40.766Z,22.80
2018-07-30T04:20:14.609Z,22.70
2018-07-30T04:20:48.455Z,22.60
2018-07-30T04:21:22.382Z,22.50
2018-07-30T04:21:56.549Z,22.50
2018-07-30T04:22:30.734Z,22.40
2018-07-30T04:23:04.804Z,22.40
2018-07-30T04:23:38.969Z,22.40
2018-07-30T04:24:13.152Z,22.30
2018-07-30T04:24:46.967Z,22.30
2018-07-30T04:25:20.801Z,22.20
2018-07-30T04:25:54.689Z,22.20
2018-07-30T04:26:28.896Z,22.20
2018-07-30T04:27:03.117Z,22.10
2018-07-30T04:27:36.978Z,22.10
2018-07-30T04:28:11.189Z,22.10
2018-07-30T04:28:45.403Z,22.10
2018-07-30T04:29:19.603Z,22.00
2018-07-30T04:29:53.489Z,22.00
2018-07-30T04:30:27.408Z,22.00
2018-07-30T04:31:01.589Z,22.00
2018-07-30T04:31:35.429Z,22.00
2018-07-30T04:32:09.257Z,22.00
2018-07-30T04:32:43.447Z,22.00
2018-07-30T04:33:17.329Z,22.00
2018-07-30T04:33:51.505Z,22.00
2018-07-30T04:34:25.387Z,22.00
2018-07-30T04:34:59.341Z,22.00
2018-07-30T04:35:33.219Z,21.90
2018-07-30T04:36:07.064Z,22.00
2018-07-30T04:36:41.251Z,22.00
2018-07-30T04:37:49.044Z,22.00
2018-07-30T04:38:23.027Z,22.00
2018-07-30T04:38:56.861Z,22.00
2018-07-30T04:39:31.049Z,22.00
2018-07-30T04:40:04.944Z,22.00
2018-07-30T04:40:39.188Z,22.00
2018-07-30T04:41:13.390Z,22.10
2018-07-30T04:41:47.911Z,22.10
2018-07-30T04:42:22.126Z,22.10
2018-07-30T04:42:56.058Z,22.20
2018-07-30T04:43:30.255Z,22.20
2018-07-30T04:44:04.126Z,22.20
2018-07-30T04:44:38.011Z,22.30
2018-07-30T04:45:11.872Z,22.30
2018-07-30T04:45:45.749Z,22.40
2018-07-30T04:46:19.930Z,22.40
2018-07-30T04:46:54.148Z,22.50
2018-07-30T04:47:28.031Z,22.50
2018-07-30T04:48:01.890Z,22.50
2018-07-30T04:48:35.731Z,22.60
2018-07-30T04:49:09.672Z,22.70
2018-07-30T04:49:43.711Z,22.60
2018-07-30T04:50:51.631Z,22.70
2018-07-30T04:51:25.494Z,22.70
2018-07-30T04:51:59.715Z,22.70
2018-07-30T04:52:33.915Z,22.60
2018-07-30T04:53:08.105Z,22.70
2018-07-30T04:53:41.973Z,22.70
2018-07-30T04:54:15.839Z,22.70
2018-07-30T04:54:49.699Z,22.60
2018-07-30T04:55:23.567Z,22.60
2018-07-30T04:55:57.800Z,22.60
2018-07-30T04:56:31.998Z,22.60
2018-07-30T04:57:05.910Z,22.60
2018-07-30T04:57:40.385Z,22.60
2018-07-30T04:58:14.241Z,22.60
2018-07-30T04:58:48.121Z,22.60
2018-07-30T04:59:22.013Z,22.60
2018-07-30T04:59:56.215Z,22.60
2018-07-30T05:00:30.129Z,22.50
2018-07-30T05:01:03.977Z,22.60
2018-07-30T05:01:38.173Z,22.50
2018-07-30T05:02:12.054Z,22.50
2018-07-30T05:02:46.232Z,22.50
2018-07-30T05:03:20.455Z,22.50
2018-07-30T05:03:54.408Z,22.50
2018-07-30T05:04:28.419Z,22.50
2018-07-30T05:05:02.632Z,22.50
2018-07-30T05:05:38.161Z,22.50
2018-07-30T05:06:12.006Z,22.50
2018-07-30T05:06:45.850Z,22.50
2018-07-30T05:07:19.723Z,22.50
2018-07-30T05:07:53.662Z,22.50
2018-07-30T05:08:27.468Z,22.50
2018-07-30T05:09:01.340Z,22.60
2018-07-30T05:09:35.490Z,22.60
2018-07-30T05:10:09.360Z,22.50
2018-07-30T05:10:43.575Z,22.50
2018-07-30T05:11:17.493Z,22.60
2018-07-30T05:11:51.861Z,22.50
2018-07-30T05:12:25.713Z,22.50
2018-07-30T05:12:59.639Z,22.60
2018-07-30T05:13:33.490Z,22.50
2018-07-30T05:14:07.831Z,22.60
2018-07-30T05:14:41.698Z,22.60
2018-07-30T05:15:15.550Z,22.60
2018-07-30T05:15:49.380Z,22.60
2018-07-30T05:16:23.294Z,22.60
2018-07-30T05:16:57.115Z,22.60
2018-07-30T05:17:31.280Z,22.70
2018-07-30T05:18:05.138Z,22.60
2018-07-30T05:18:39.336Z,22.60
2018-07-30T05:19:13.396Z,22.60
2018-07-30T05:19:47.741Z,22.60
2018-07-30T05:20:22.174Z,22.60
2018-07-30T05:20:56.483Z,22.70
2018-07-30T05:21:30.328Z,22.70
2018-07-30T05:22:04.174Z,22.70
2018-07-30T05:22:38.712Z,22.70
2018-07-30T05:23:12.538Z,22.70
2018-07-30T05:23:46.384Z,22.70
2018-07-30T05:24:20.586Z,22.70
2018-07-30T05:24:54.860Z,22.80
2018-07-30T05:28:21.808Z,22.80
2018-07-30T05:28:55.684Z,22.90
2018-07-30T05:29:29.886Z,22.80
2018-07-30T05:30:04.270Z,22.90
2018-07-30T05:30:38.135Z,22.90
2018-07-30T05:31:12.317Z,22.90
2018-07-30T05:31:46.593Z,22.90
2018-07-30T05:32:20.901Z,22.90
2018-07-30T05:32:54.766Z,22.90
2018-07-30T05:33:28.956Z,22.90
2018-07-30T05:34:02.815Z,22.90
2018-07-30T05:34:36.640Z,22.90
2018-07-30T05:35:10.828Z,22.90
2018-07-30T05:35:45.066Z,22.90
2018-07-30T05:36:18.946Z,23.00
2018-07-30T05:36:53.122Z,23.00
2018-07-30T05:37:27.403Z,23.00
2018-07-30T05:38:01.283Z,23.00
2018-07-30T05:38:35.837Z,23.00
2018-07-30T05:39:11.076Z,23.00
2018-07-30T05:39:44.918Z,23.00
2018-07-30T05:40:18.765Z,23.00
2018-07-30T05:40:52.658Z,23.00
2018-07-30T05:41:33.318Z,23.00
2018-07-30T05:42:07.494Z,23.00
2018-07-30T05:42:41.345Z,23.10
2018-07-30T05:43:16.062Z,23.10
2018-07-30T05:43:50.196Z,23.10
2018-07-30T05:44:24.100Z,23.10
2018-07-30T05:44:58.266Z,23.20
2018-07-30T05:45:32.642Z,23.20
2018-07-30T05:46:06.520Z,23.20
2018-07-30T05:46:41.018Z,23.20
2018-07-30T05:47:15.172Z,23.20
2018-07-30T05:47:49.376Z,23.20
2018-07-30T05:48:23.239Z,23.20
2018-07-30T05:48:57.462Z,23.20
2018-07-30T05:49:31.704Z,23.20
2018-07-30T05:50:05.921Z,23.20
2018-07-30T05:50:39.922Z,23.20
2018-07-30T05:51:14.138Z,23.30
2018-07-30T05:51:47.980Z,23.30
2018-07-30T05:52:22.182Z,23.30
2018-07-30T05:52:56.049Z,23.30
2018-07-30T05:53:30.231Z,23.30
2018-07-30T05:54:04.444Z,23.30
2018-07-30T05:54:38.307Z,23.40
2018-07-30T05:55:12.166Z,23.40
2018-07-30T05:55:45.986Z,23.40
2018-07-30T05:56:19.892Z,23.50
2018-07-30T05:56:53.864Z,23.50
2018-07-30T05:57:27.696Z,23.50
2018-07-30T05:58:01.884Z,23.50
2018-07-30T05:58:35.776Z,23.50
2018-07-30T05:59:09.998Z,23.50
2018-07-30T05:59:43.828Z,23.50
2018-07-30T06:00:17.921Z,23.60
2018-07-30T06:00:51.787Z,23.60
2018-07-30T06:01:25.681Z,23.60
2018-07-30T06:01:59.546Z,23.60
2018-07-30T06:02:33.768Z,23.60
2018-07-30T06:03:07.992Z,23.60
2018-07-30T06:03:42.174Z,23.60
2018-07-30T06:04:16.100Z,23.70
2018-07-30T06:04:50.274Z,23.60
2018-07-30T06:05:24.158Z,23.70
2018-07-30T06:05:57.982Z,23.70
2018-07-30T06:06:32.166Z,23.70
2018-07-30T06:07:06.416Z,23.70
2018-07-30T06:07:40.600Z,23.70
2018-07-30T06:08:14.468Z,23.70
2018-07-30T06:08:48.288Z,23.70
2018-07-30T06:09:22.773Z,23.70
2018-07-30T07:30:01.130Z,23.80
2018-07-30T07:30:35.715Z,24.90
2018-07-30T07:31:09.622Z,24.90
2018-07-30T07:31:43.520Z,24.80
2018-07-30T07:32:17.750Z,24.80
2018-07-30T07:32:51.989Z,24.80
2018-07-30T07:33:25.895Z,24.80
2018-07-30T07:33:59.796Z,24.80
2018-07-30T07:34:33.675Z,24.70
2018-07-30T07:35:07.955Z,24.70
2018-07-30T07:35:41.943Z,24.70
2018-07-30T07:36:16.190Z,24.70
2018-07-30T07:36:50.427Z,24.70
2018-07-30T07:37:24.429Z,24.70
2018-07-30T07:37:58.670Z,24.70
2018-07-30T07:38:32.879Z,24.70
2018-07-30T07:39:08.401Z,24.70
2018-07-30T07:39:42.914Z,24.70
2018-07-30T07:40:16.823Z,24.70
2018-07-30T07:40:50.901Z,24.60
2018-07-30T07:41:24.798Z,24.60
2018-07-30T07:41:58.691Z,24.60
2018-07-30T07:42:32.892Z,24.60
2018-07-30T07:43:07.110Z,24.60
2018-07-30T07:43:42.286Z,24.60
2018-07-30T07:44:16.484Z,24.60
2018-07-30T07:44:50.387Z,24.60
2018-07-30T07:45:24.820Z,24.70
2018-07-30T07:45:58.702Z,24.70
2018-07-30T07:46:32.884Z,24.70
2018-07-30T07:47:07.446Z,24.70
2018-07-30T07:47:41.373Z,24.70
2018-07-30T07:48:15.282Z,24.70
2018-07-30T07:48:49.361Z,24.70
2018-07-30T07:49:23.532Z,24.70
2018-07-30T07:49:57.432Z,24.80
2018-07-30T07:50:31.656Z,24.80
2018-07-30T07:51:05.763Z,24.70
2018-07-30T07:51:40.206Z,24.80
2018-07-30T07:52:14.571Z,24.80
2018-07-30T07:52:48.516Z,24.80
2018-07-30T07:53:22.727Z,24.80
2018-07-30T07:53:56.646Z,24.90
2018-07-30T07:54:30.548Z,24.90
2018-07-30T07:55:04.482Z,24.90
2018-07-30T07:55:38.691Z,24.90
2018-07-30T07:56:12.607Z,24.90
2018-07-30T07:56:46.460Z,25.00
2018-07-30T07:57:20.365Z,25.00
2018-07-30T07:57:54.349Z,25.00
2018-07-30T07:58:28.390Z,25.10
2018-07-30T07:59:02.280Z,25.10
2018-07-30T07:59:36.480Z,25.10
2018-07-30T08:00:11.116Z,25.20
2018-07-30T08:00:45.343Z,25.20
2018-07-30T08:01:19.511Z,25.20
2018-07-30T08:01:53.378Z,25.30
2018-07-30T08:02:27.619Z,25.30
2018-07-30T08:03:01.505Z,25.40
2018-07-30T08:03:35.369Z,25.40
2018-07-30T08:04:09.285Z,25.40
2018-07-30T08:04:43.506Z,25.40
2018-07-30T08:05:17.729Z,25.50
2018-07-30T08:05:51.605Z,25.50
2018-07-30T08:06:25.590Z,25.60
2018-07-30T08:06:59.793Z,25.60
2018-07-30T08:07:34.375Z,25.60
2018-07-30T08:08:08.267Z,25.70
2018-07-30T08:08:42.155Z,25.70
2018-07-30T08:09:16.032Z,25.70
2018-07-30T08:09:50.326Z,25.70
2018-07-30T08:10:24.312Z,25.70
2018-07-30T08:10:58.212Z,25.70
2018-07-30T08:11:32.638Z,25.70
2018-07-30T08:12:07.207Z,25.70
2018-07-30T08:12:41.096Z,25.80
2018-07-30T08:13:15.327Z,25.80
2018-07-30T08:13:49.258Z,25.80
2018-07-30T08:14:23.512Z,25.80
2018-07-30T08:14:57.393Z,25.90
2018-07-30T08:15:31.703Z,25.90
2018-07-30T08:16:05.794Z,25.90
2018-07-30T08:16:39.744Z,26.00
2018-07-30T08:17:13.979Z,26.00
2018-07-30T08:17:47.851Z,26.00
2018-07-30T08:18:21.772Z,26.10
2018-07-30T08:18:55.704Z,26.10
2018-07-30T08:19:29.761Z,26.10
2018-07-30T08:20:04.351Z,26.10
2018-07-30T08:20:38.228Z,26.10
2018-07-30T08:21:12.426Z,26.10
2018-07-30T08:21:46.287Z,26.10
2018-07-30T08:22:20.515Z,26.10
2018-07-30T08:22:54.969Z,26.10
2018-07-30T08:23:28.902Z,26.10
2018-07-30T08:24:02.733Z,26.10
2018-07-30T08:24:37.264Z,26.10
2018-07-30T08:25:12.673Z,26.10
2018-07-30T08:25:46.553Z,26.10
2018-07-30T08:26:20.384Z,26.20
2018-07-30T08:26:54.276Z,26.20
2018-07-30T08:27:28.531Z,26.20
2018-07-30T08:28:02.416Z,26.20
2018-07-30T08:28:36.300Z,26.20
2018-07-30T08:29:10.516Z,26.10
2018-07-30T08:29:44.574Z,26.20
2018-07-30T08:30:18.745Z,26.20
2018-07-30T08:30:52.632Z,26.20
2018-07-30T08:31:26.505Z,26.20
2018-07-30T08:32:00.383Z,26.20
2018-07-30T08:32:34.260Z,26.20
2018-07-30T08:33:08.107Z,26.20
2018-07-30T08:33:42.484Z,26.20
2018-07-30T08:34:16.714Z,26.20
2018-07-30T08:34:50.982Z,26.30
2018-07-30T08:35:24.852Z,26.20
2018-07-30T08:35:59.028Z,26.30
2018-07-30T08:36:32.896Z,26.30
2018-07-30T08:37:06.784Z,26.30
2018-07-30T08:37:41.041Z,26.30
2018-07-30T08:38:15.074Z,26.30
2018-07-30T08:39:22.522Z,26.40
2018-07-30T08:39:56.388Z,26.50
2018-07-30T08:40:30.646Z,26.50
2018-07-30T08:41:04.484Z,26.60
2018-07-30T08:41:38.710Z,26.60
2018-07-30T08:42:12.979Z,26.70
2018-07-30T08:42:47.374Z,26.80
2018-07-30T08:43:21.228Z,26.90
2018-07-30T08:43:55.467Z,26.90
2018-07-30T08:44:29.425Z,27.00
2018-07-30T08:45:03.374Z,27.10
2018-07-30T08:45:37.214Z,27.20
2018-07-30T08:46:11.426Z,27.30
2018-07-30T08:46:45.592Z,27.30
2018-07-30T08:47:20.115Z,27.40
2018-07-30T08:47:54.026Z,27.50
2018-07-30T08:48:27.876Z,27.60
2018-07-30T08:49:01.719Z,27.70
2018-07-30T08:49:35.920Z,27.80
2018-07-30T08:50:09.795Z,27.80
2018-07-30T08:50:43.978Z,27.80
2018-07-30T08:51:17.831Z,27.90
2018-07-30T08:51:52.029Z,27.90
2018-07-30T08:52:25.904Z,28.00
2018-07-30T08:53:00.434Z,28.00
2018-07-30T08:53:34.302Z,28.10
2018-07-30T08:54:08.164Z,28.00
2018-07-30T08:54:42.335Z,28.00
2018-07-30T08:55:16.190Z,28.10
2018-07-30T08:55:50.034Z,28.10